sensor_id;sensor_type;location;lat;lon;timestamp;P1;durP1;ratioP1;P2;durP2;ratioP2
10275;SDS011;5183;51.190;6.820;2022-11-20T05:47:09;30.17;;;21.23;;
10275;SDS011;5183;51.190;6.820;2022-11-20T05:49:36;30.10;;;21.70;;
10275;SDS011;5183;51.190;6.820;2022-11-20T05:52:03;27.67;;;20.83;;
10275;SDS011;5183;51.190;6.820;2022-11-20T05:54:30;28.87;;;21.23;;
10275;SDS011;5183;51.190;6.820;2022-11-20T05:56:57;32.27;;;22.13;;
10275;SDS011;5183;51.190;6.820;2022-11-20T05:59:24;27.97;;;20.90;;
10275;SDS011;5183;51.190;6.820;2022-11-20T06:01:50;28.57;;;21.43;;
10275;SDS011;5183;51.190;6.820;2022-11-20T06:04:19;28.37;;;21.10;;
10275;SDS011;5183;51.190;6.820;2022-11-20T06:06:45;29.50;;;21.67;;
10275;SDS011;5183;51.190;6.820;2022-11-20T06:09:12;30.23;;;21.90;;
10275;SDS011;5183;51.190;6.820;2022-11-20T06:11:39;30.07;;;21.30;;
10275;SDS011;5183;51.190;6.820;2022-11-20T06:14:06;32.17;;;22.10;;
10275;SDS011;5183;51.190;6.820;2022-11-20T06:16:32;28.60;;;21.60;;
10275;SDS011;5183;51.190;6.820;2022-11-20T06:18:59;31.93;;;22.17;;
10275;SDS011;5183;51.190;6.820;2022-11-20T06:21:28;31.20;;;22.57;;
10275;SDS011;5183;51.190;6.820;2022-11-20T06:23:54;30.40;;;22.33;;
10275;SDS011;5183;51.190;6.820;2022-11-20T06:26:22;31.53;;;22.43;;
10275;SDS011;5183;51.190;6.820;2022-11-20T06:28:49;30.80;;;21.77;;
10275;SDS011;5183;51.190;6.820;2022-11-20T06:31:18;28.60;;;21.50;;
10275;SDS011;5183;51.190;6.820;2022-11-20T06:33:46;30.40;;;21.93;;
10275;SDS011;5183;51.190;6.820;2022-11-20T06:36:14;29.53;;;21.60;;
10275;SDS011;5183;51.190;6.820;2022-11-20T06:38:44;30.57;;;22.23;;
10275;SDS011;5183;51.190;6.820;2022-11-20T06:41:11;30.73;;;22.20;;
10275;SDS011;5183;51.190;6.820;2022-11-20T06:43:40;30.10;;;22.63;;
10275;SDS011;5183;51.190;6.820;2022-11-20T06:46:08;29.17;;;22.00;;
10275;SDS011;5183;51.190;6.820;2022-11-20T06:48:35;29.73;;;21.87;;
10275;SDS011;5183;51.190;6.820;2022-11-20T06:51:02;28.30;;;21.50;;
10275;SDS011;5183;51.190;6.820;2022-11-20T06:53:30;31.00;;;21.90;;
10275;SDS011;5183;51.190;6.820;2022-11-20T06:55:59;29.37;;;21.50;;
10275;SDS011;5183;51.190;6.820;2022-11-20T06:58:26;28.73;;;21.30;;
10275;SDS011;5183;51.190;6.820;2022-11-20T07:00:53;31.83;;;24.55;;
10275;SDS011;5183;51.190;6.820;2022-11-20T07:03:24;28.60;;;21.60;;
10275;SDS011;5183;51.190;6.820;2022-11-20T07:05:50;31.27;;;22.30;;
10275;SDS011;5183;51.190;6.820;2022-11-20T07:08:17;32.70;;;21.63;;
10275;SDS011;5183;51.190;6.820;2022-11-20T07:10:44;32.97;;;23.33;;
10275;SDS011;5183;51.190;6.820;2022-11-20T07:13:12;32.47;;;22.57;;
10275;SDS011;5183;51.190;6.820;2022-11-20T07:15:40;32.90;;;24.00;;
10275;SDS011;5183;51.190;6.820;2022-11-20T07:18:06;33.33;;;23.57;;
10275;SDS011;5183;51.190;6.820;2022-11-20T07:20:33;35.57;;;24.83;;
10275;SDS011;5183;51.190;6.820;2022-11-20T07:23:00;35.07;;;24.93;;
10275;SDS011;5183;51.190;6.820;2022-11-20T07:25:27;36.13;;;25.17;;
10275;SDS011;5183;51.190;6.820;2022-11-20T07:27:56;33.37;;;25.13;;
10275;SDS011;5183;51.190;6.820;2022-11-20T07:30:25;35.53;;;24.10;;
10275;SDS011;5183;51.190;6.820;2022-11-20T07:32:52;34.23;;;24.57;;
10275;SDS011;5183;51.190;6.820;2022-11-20T07:35:19;37.60;;;26.43;;
10275;SDS011;5183;51.190;6.820;2022-11-20T07:37:46;37.73;;;25.70;;
10275;SDS011;5183;51.190;6.820;2022-11-20T07:40:13;37.40;;;26.37;;
10275;SDS011;5183;51.190;6.820;2022-11-20T07:42:46;39.07;;;25.77;;
10275;SDS011;5183;51.190;6.820;2022-11-20T07:45:14;38.30;;;26.50;;
10275;SDS011;5183;51.190;6.820;2022-11-20T07:47:43;38.27;;;26.43;;
10275;SDS011;5183;51.190;6.820;2022-11-20T07:50:09;38.60;;;25.90;;
10275;SDS011;5183;51.190;6.820;2022-11-20T07:52:36;39.00;;;26.93;;
10275;SDS011;5183;51.190;6.820;2022-11-20T07:55:03;38.25;;;30.27;;
10275;SDS011;5183;51.190;6.820;2022-11-20T07:57:31;41.43;;;29.20;;
10275;SDS011;5183;51.190;6.820;2022-11-20T07:59:58;40.27;;;27.80;;
10275;SDS011;5183;51.190;6.820;2022-11-20T08:02:25;37.80;;;27.13;;
10275;SDS011;5183;51.190;6.820;2022-11-20T08:04:53;35.87;;;24.50;;
10275;SDS011;5183;51.190;6.820;2022-11-20T08:07:20;36.83;;;26.13;;
10275;SDS011;5183;51.190;6.820;2022-11-20T08:09:46;36.27;;;25.60;;
10275;SDS011;5183;51.190;6.820;2022-11-20T08:12:16;39.70;;;27.90;;
10275;SDS011;5183;51.190;6.820;2022-11-20T08:15:02;36.47;;;26.40;;
10275;SDS011;5183;51.190;6.820;2022-11-20T08:17:30;36.27;;;25.57;;
10275;SDS011;5183;51.190;6.820;2022-11-20T08:19:58;39.83;;;26.73;;
10275;SDS011;5183;51.190;6.820;2022-11-20T08:22:25;36.20;;;26.73;;
10275;SDS011;5183;51.190;6.820;2022-11-20T08:24:52;33.77;;;25.07;;
10275;SDS011;5183;51.190;6.820;2022-11-20T08:27:18;35.97;;;25.57;;
10275;SDS011;5183;51.190;6.820;2022-11-20T08:29:45;34.20;;;25.47;;
10275;SDS011;5183;51.190;6.820;2022-11-20T08:32:12;37.23;;;26.50;;
10275;SDS011;5183;51.190;6.820;2022-11-20T08:34:39;36.87;;;26.67;;
10275;SDS011;5183;51.190;6.820;2022-11-20T08:37:07;34.20;;;25.73;;
10275;SDS011;5183;51.190;6.820;2022-11-20T08:39:34;35.90;;;25.53;;
10275;SDS011;5183;51.190;6.820;2022-11-20T08:42:00;32.27;;;25.03;;
10275;SDS011;5183;51.190;6.820;2022-11-20T08:44:27;31.80;;;24.17;;
10275;SDS011;5183;51.190;6.820;2022-11-20T08:46:54;34.37;;;24.87;;
10275;SDS011;5183;51.190;6.820;2022-11-20T08:49:22;34.10;;;25.40;;
10275;SDS011;5183;51.190;6.820;2022-11-20T08:51:48;31.77;;;23.63;;
10275;SDS011;5183;51.190;6.820;2022-11-20T08:54:20;32.13;;;23.77;;
10275;SDS011;5183;51.190;6.820;2022-11-20T08:56:47;29.27;;;22.40;;
10275;SDS011;5183;51.190;6.820;2022-11-20T08:59:14;32.43;;;23.57;;
10275;SDS011;5183;51.190;6.820;2022-11-20T09:01:41;31.93;;;23.47;;
10275;SDS011;5183;51.190;6.820;2022-11-20T09:04:08;29.03;;;21.93;;
10275;SDS011;5183;51.190;6.820;2022-11-20T09:06:34;29.33;;;22.00;;
10275;SDS011;5183;51.190;6.820;2022-11-20T09:09:01;27.80;;;21.00;;
10275;SDS011;5183;51.190;6.820;2022-11-20T09:11:29;26.67;;;20.87;;
10275;SDS011;5183;51.190;6.820;2022-11-20T09:13:56;26.50;;;21.00;;
10275;SDS011;5183;51.190;6.820;2022-11-20T09:16:23;25.50;;;20.73;;
10275;SDS011;5183;51.190;6.820;2022-11-20T09:18:50;27.57;;;21.13;;
10275;SDS011;5183;51.190;6.820;2022-11-20T09:21:17;26.97;;;20.83;;
10275;SDS011;5183;51.190;6.820;2022-11-20T09:23:43;27.27;;;21.53;;
10275;SDS011;5183;51.190;6.820;2022-11-20T09:26:11;26.73;;;20.83;;
10275;SDS011;5183;51.190;6.820;2022-11-20T09:28:41;28.47;;;21.00;;
10275;SDS011;5183;51.190;6.820;2022-11-20T09:31:08;28.60;;;21.93;;
10275;SDS011;5183;51.190;6.820;2022-11-20T09:33:48;26.20;;;21.20;;
10275;SDS011;5183;51.190;6.820;2022-11-20T09:36:15;26.90;;;20.93;;
10275;SDS011;5183;51.190;6.820;2022-11-20T09:38:43;28.47;;;20.40;;
10275;SDS011;5183;51.190;6.820;2022-11-20T09:41:14;25.17;;;20.40;;
10275;SDS011;5183;51.190;6.820;2022-11-20T09:43:58;27.20;;;21.27;;
10275;SDS011;5183;51.190;6.820;2022-11-20T09:46:35;31.43;;;22.37;;
10275;SDS011;5183;51.190;6.820;2022-11-20T09:49:13;25.33;;;19.77;;
10275;SDS011;5183;51.190;6.820;2022-11-20T09:51:50;24.37;;;19.53;;
10275;SDS011;5183;51.190;6.820;2022-11-20T09:54:25;25.57;;;20.00;;
10275;SDS011;5183;51.190;6.820;2022-11-20T09:56:58;25.77;;;19.40;;
10275;SDS011;5183;51.190;6.820;2022-11-20T09:59:31;23.83;;;19.73;;
10275;SDS011;5183;51.190;6.820;2022-11-20T10:02:01;23.23;;;19.00;;
10275;SDS011;5183;51.190;6.820;2022-11-20T10:04:38;23.00;;;18.20;;
10275;SDS011;5183;51.190;6.820;2022-11-20T10:07:15;22.40;;;17.67;;
10275;SDS011;5183;51.190;6.820;2022-11-20T10:09:49;25.83;;;18.13;;
10275;SDS011;5183;51.190;6.820;2022-11-20T10:12:19;25.57;;;19.07;;
10275;SDS011;5183;51.190;6.820;2022-11-20T10:14:58;23.07;;;18.40;;
10275;SDS011;5183;51.190;6.820;2022-11-20T10:17:41;24.33;;;19.47;;
10275;SDS011;5183;51.190;6.820;2022-11-20T10:20:23;23.80;;;18.40;;
10275;SDS011;5183;51.190;6.820;2022-11-20T10:23:02;22.63;;;18.73;;
10275;SDS011;5183;51.190;6.820;2022-11-20T10:25:48;28.30;;;21.17;;
10275;SDS011;5183;51.190;6.820;2022-11-20T10:28:34;24.23;;;18.87;;
10275;SDS011;5183;51.190;6.820;2022-11-20T10:31:13;24.23;;;18.97;;
10275;SDS011;5183;51.190;6.820;2022-11-20T10:33:51;22.97;;;18.30;;
10275;SDS011;5183;51.190;6.820;2022-11-20T10:36:21;26.33;;;20.70;;
10275;SDS011;5183;51.190;6.820;2022-11-20T10:38:50;24.33;;;19.37;;
10275;SDS011;5183;51.190;6.820;2022-11-20T10:41:23;26.53;;;19.50;;
10275;SDS011;5183;51.190;6.820;2022-11-20T10:43:53;25.50;;;19.87;;
10275;SDS011;5183;51.190;6.820;2022-11-20T10:46:26;24.33;;;18.90;;
10275;SDS011;5183;51.190;6.820;2022-11-20T10:49:02;23.73;;;19.00;;
10275;SDS011;5183;51.190;6.820;2022-11-20T10:51:37;25.27;;;20.03;;
10275;SDS011;5183;51.190;6.820;2022-11-20T10:54:12;23.07;;;18.50;;
10275;SDS011;5183;51.190;6.820;2022-11-20T10:56:47;23.70;;;17.80;;
10275;SDS011;5183;51.190;6.820;2022-11-20T10:59:25;22.33;;;17.90;;
10275;SDS011;5183;51.190;6.820;2022-11-20T11:02:15;25.47;;;19.60;;
10275;SDS011;5183;51.190;6.820;2022-11-20T11:04:45;25.97;;;19.40;;
10275;SDS011;5183;51.190;6.820;2022-11-20T11:07:14;23.63;;;18.67;;
10275;SDS011;5183;51.190;6.820;2022-11-20T11:09:44;23.83;;;18.87;;
10275;SDS011;5183;51.190;6.820;2022-11-20T11:12:14;25.23;;;19.10;;
10275;SDS011;5183;51.190;6.820;2022-11-20T11:14:41;24.93;;;18.20;;
10275;SDS011;5183;51.190;6.820;2022-11-20T11:17:20;24.57;;;18.80;;
10275;SDS011;5183;51.190;6.820;2022-11-20T11:20:02;24.73;;;18.83;;
10275;SDS011;5183;51.190;6.820;2022-11-20T11:22:32;26.80;;;20.20;;
10275;SDS011;5183;51.190;6.820;2022-11-20T11:25:00;24.17;;;18.43;;
10275;SDS011;5183;51.190;6.820;2022-11-20T11:27:28;25.33;;;18.93;;
10275;SDS011;5183;51.190;6.820;2022-11-20T11:30:03;35.17;;;25.80;;
10275;SDS011;5183;51.190;6.820;2022-11-20T11:32:41;27.50;;;20.90;;
10275;SDS011;5183;51.190;6.820;2022-11-20T11:35:18;24.70;;;19.93;;
10275;SDS011;5183;51.190;6.820;2022-11-20T11:37:51;26.77;;;19.80;;
10275;SDS011;5183;51.190;6.820;2022-11-20T11:40:21;25.23;;;19.50;;
10275;SDS011;5183;51.190;6.820;2022-11-20T11:42:53;26.53;;;20.33;;
10275;SDS011;5183;51.190;6.820;2022-11-20T11:45:23;25.03;;;19.70;;
10275;SDS011;5183;51.190;6.820;2022-11-20T11:47:52;27.67;;;20.80;;
10275;SDS011;5183;51.190;6.820;2022-11-20T11:50:21;27.23;;;20.43;;
10275;SDS011;5183;51.190;6.820;2022-11-20T11:53:01;28.77;;;21.27;;
10275;SDS011;5183;51.190;6.820;2022-11-20T11:55:35;29.90;;;21.03;;
10275;SDS011;5183;51.190;6.820;2022-11-20T11:58:15;26.60;;;20.37;;
10275;SDS011;5183;51.190;6.820;2022-11-20T12:00:51;29.83;;;20.43;;
10275;SDS011;5183;51.190;6.820;2022-11-20T12:03:24;25.70;;;19.27;;
10275;SDS011;5183;51.190;6.820;2022-11-20T12:05:56;25.63;;;20.17;;
10275;SDS011;5183;51.190;6.820;2022-11-20T12:08:27;24.13;;;19.30;;
10275;SDS011;5183;51.190;6.820;2022-11-20T12:11:01;27.63;;;20.53;;
10275;SDS011;5183;51.190;6.820;2022-11-20T12:13:40;26.50;;;20.20;;
10275;SDS011;5183;51.190;6.820;2022-11-20T12:16:13;26.37;;;20.60;;
10275;SDS011;5183;51.190;6.820;2022-11-20T12:18:45;26.10;;;19.27;;
10275;SDS011;5183;51.190;6.820;2022-11-20T12:21:18;25.67;;;20.47;;
10275;SDS011;5183;51.190;6.820;2022-11-20T12:26:43;27.43;;;20.93;;
10275;SDS011;5183;51.190;6.820;2022-11-20T12:29:23;29.73;;;22.40;;
10275;SDS011;5183;51.190;6.820;2022-11-20T12:32:20;29.53;;;21.83;;
10275;SDS011;5183;51.190;6.820;2022-11-20T12:35:04;29.10;;;21.80;;
10275;SDS011;5183;51.190;6.820;2022-11-20T12:37:48;27.20;;;21.50;;
10275;SDS011;5183;51.190;6.820;2022-11-20T12:40:23;27.70;;;21.83;;
10275;SDS011;5183;51.190;6.820;2022-11-20T12:43:01;29.20;;;21.30;;
10275;SDS011;5183;51.190;6.820;2022-11-20T12:46:01;27.60;;;21.53;;
10275;SDS011;5183;51.190;6.820;2022-11-20T12:48:53;35.43;;;26.33;;
10275;SDS011;5183;51.190;6.820;2022-11-20T12:51:36;29.20;;;21.97;;
10275;SDS011;5183;51.190;6.820;2022-11-20T12:54:21;29.77;;;21.80;;
10275;SDS011;5183;51.190;6.820;2022-11-20T12:57:09;29.47;;;22.30;;
10275;SDS011;5183;51.190;6.820;2022-11-20T12:59:51;31.60;;;22.90;;
10275;SDS011;5183;51.190;6.820;2022-11-20T13:02:27;32.43;;;23.57;;
10275;SDS011;5183;51.190;6.820;2022-11-20T13:05:05;33.20;;;24.53;;
10275;SDS011;5183;51.190;6.820;2022-11-20T13:07:45;31.37;;;23.27;;
10275;SDS011;5183;51.190;6.820;2022-11-20T13:10:14;37.73;;;25.73;;
10275;SDS011;5183;51.190;6.820;2022-11-20T13:12:47;34.83;;;24.90;;
10275;SDS011;5183;51.190;6.820;2022-11-20T13:15:21;38.33;;;26.47;;
10275;SDS011;5183;51.190;6.820;2022-11-20T13:17:59;35.20;;;25.07;;
10275;SDS011;5183;51.190;6.820;2022-11-20T13:20:27;38.47;;;27.13;;
10275;SDS011;5183;51.190;6.820;2022-11-20T13:22:56;36.97;;;25.80;;
10275;SDS011;5183;51.190;6.820;2022-11-20T13:25:24;38.17;;;26.67;;
10275;SDS011;5183;51.190;6.820;2022-11-20T13:27:52;40.30;;;27.90;;
10275;SDS011;5183;51.190;6.820;2022-11-20T13:30:20;37.77;;;26.73;;
10275;SDS011;5183;51.190;6.820;2022-11-20T13:32:52;40.23;;;26.93;;
10275;SDS011;5183;51.190;6.820;2022-11-20T13:35:25;41.27;;;27.53;;
10275;SDS011;5183;51.190;6.820;2022-11-20T13:38:05;40.60;;;27.23;;
10275;SDS011;5183;51.190;6.820;2022-11-20T13:40:33;41.50;;;28.70;;
10275;SDS011;5183;51.190;6.820;2022-11-20T13:43:18;45.07;;;30.83;;
10275;SDS011;5183;51.190;6.820;2022-11-20T13:45:58;40.53;;;28.53;;
10275;SDS011;5183;51.190;6.820;2022-11-20T13:48:28;39.37;;;26.43;;
10275;SDS011;5183;51.190;6.820;2022-11-20T13:51:01;39.27;;;27.03;;
10275;SDS011;5183;51.190;6.820;2022-11-20T13:53:47;36.87;;;26.97;;
10275;SDS011;5183;51.190;6.820;2022-11-20T13:56:35;37.23;;;25.70;;
10275;SDS011;5183;51.190;6.820;2022-11-20T13:59:17;39.00;;;27.00;;
10275;SDS011;5183;51.190;6.820;2022-11-20T14:01:58;38.70;;;26.53;;
10275;SDS011;5183;51.190;6.820;2022-11-20T14:04:28;38.67;;;25.70;;
10275;SDS011;5183;51.190;6.820;2022-11-20T14:06:59;40.50;;;29.03;;
10275;SDS011;5183;51.190;6.820;2022-11-20T14:09:28;43.23;;;28.50;;
10275;SDS011;5183;51.190;6.820;2022-11-20T14:11:56;40.00;;;27.13;;
10275;SDS011;5183;51.190;6.820;2022-11-20T14:14:23;40.93;;;28.23;;
10275;SDS011;5183;51.190;6.820;2022-11-20T14:16:51;38.43;;;25.87;;
10275;SDS011;5183;51.190;6.820;2022-11-20T14:19:23;43.97;;;27.87;;
10275;SDS011;5183;51.190;6.820;2022-11-20T14:21:53;39.80;;;26.53;;
10275;SDS011;5183;51.190;6.820;2022-11-20T14:24:34;36.47;;;25.53;;
10275;SDS011;5183;51.190;6.820;2022-11-20T14:27:00;37.80;;;25.57;;
10275;SDS011;5183;51.190;6.820;2022-11-20T14:29:28;36.90;;;25.70;;
10275;SDS011;5183;51.190;6.820;2022-11-20T14:31:59;38.47;;;26.53;;
10275;SDS011;5183;51.190;6.820;2022-11-20T14:34:27;34.83;;;24.77;;
10275;SDS011;5183;51.190;6.820;2022-11-20T14:36:57;35.13;;;24.23;;
10275;SDS011;5183;51.190;6.820;2022-11-20T14:39:28;32.30;;;22.87;;
10275;SDS011;5183;51.190;6.820;2022-11-20T14:41:58;35.43;;;24.20;;
10275;SDS011;5183;51.190;6.820;2022-11-20T14:44:26;31.73;;;22.87;;
10275;SDS011;5183;51.190;6.820;2022-11-20T14:46:56;34.10;;;23.60;;
10275;SDS011;5183;51.190;6.820;2022-11-20T14:49:24;33.87;;;23.97;;
10275;SDS011;5183;51.190;6.820;2022-11-20T14:51:58;29.50;;;20.80;;
10275;SDS011;5183;51.190;6.820;2022-11-20T14:54:26;29.27;;;21.80;;
10275;SDS011;5183;51.190;6.820;2022-11-20T14:56:54;28.63;;;21.50;;
10275;SDS011;5183;51.190;6.820;2022-11-20T14:59:24;28.57;;;21.13;;
10275;SDS011;5183;51.190;6.820;2022-11-20T15:01:55;29.90;;;21.77;;
10275;SDS011;5183;51.190;6.820;2022-11-20T15:04:23;28.03;;;20.83;;
10275;SDS011;5183;51.190;6.820;2022-11-20T15:06:51;29.40;;;21.73;;
10275;SDS011;5183;51.190;6.820;2022-11-20T15:09:19;32.00;;;21.43;;
10275;SDS011;5183;51.190;6.820;2022-11-20T15:11:52;28.70;;;20.40;;
10275;SDS011;5183;51.190;6.820;2022-11-20T15:14:20;29.30;;;21.00;;
10275;SDS011;5183;51.190;6.820;2022-11-20T15:16:49;29.10;;;20.53;;
10275;SDS011;5183;51.190;6.820;2022-11-20T15:19:16;29.60;;;20.50;;
10275;SDS011;5183;51.190;6.820;2022-11-20T15:21:45;31.87;;;21.33;;
10275;SDS011;5183;51.190;6.820;2022-11-20T15:24:11;29.80;;;20.73;;
10275;SDS011;5183;51.190;6.820;2022-11-20T15:26:39;30.53;;;21.67;;
10275;SDS011;5183;51.190;6.820;2022-11-20T15:29:07;28.00;;;21.57;;
10275;SDS011;5183;51.190;6.820;2022-11-20T15:31:35;30.33;;;21.90;;
10275;SDS011;5183;51.190;6.820;2022-11-20T15:34:08;29.13;;;21.60;;
10275;SDS011;5183;51.190;6.820;2022-11-20T15:36:37;31.83;;;22.20;;
10275;SDS011;5183;51.190;6.820;2022-11-20T15:39:04;31.43;;;22.73;;
10275;SDS011;5183;51.190;6.820;2022-11-20T15:41:33;34.47;;;23.40;;
10275;SDS011;5183;51.190;6.820;2022-11-20T15:43:59;32.47;;;22.73;;
10275;SDS011;5183;51.190;6.820;2022-11-20T15:46:27;35.23;;;23.23;;
10275;SDS011;5183;51.190;6.820;2022-11-20T15:48:55;33.50;;;23.00;;
10275;SDS011;5183;51.190;6.820;2022-11-20T15:51:25;32.80;;;24.13;;
10275;SDS011;5183;51.190;6.820;2022-11-20T15:53:55;39.73;;;25.30;;
10275;SDS011;5183;51.190;6.820;2022-11-20T15:56:23;38.97;;;24.60;;
10275;SDS011;5183;51.190;6.820;2022-11-20T15:58:49;35.83;;;24.47;;
10275;SDS011;5183;51.190;6.820;2022-11-20T16:01:17;38.77;;;25.03;;
10275;SDS011;5183;51.190;6.820;2022-11-20T16:03:45;40.70;;;26.50;;
10275;SDS011;5183;51.190;6.820;2022-11-20T16:06:12;43.23;;;31.03;;
10275;SDS011;5183;51.190;6.820;2022-11-20T16:08:42;41.10;;;26.33;;
10275;SDS011;5183;51.190;6.820;2022-11-20T16:11:10;40.83;;;26.80;;
10275;SDS011;5183;51.190;6.820;2022-11-20T16:13:38;41.57;;;26.77;;
10275;SDS011;5183;51.190;6.820;2022-11-20T16:16:23;42.80;;;27.70;;
10275;SDS011;5183;51.190;6.820;2022-11-20T16:18:53;42.30;;;25.60;;
10275;SDS011;5183;51.190;6.820;2022-11-20T16:21:21;40.67;;;25.30;;
10275;SDS011;5183;51.190;6.820;2022-11-20T16:23:53;44.50;;;27.03;;
10275;SDS011;5183;51.190;6.820;2022-11-20T16:26:20;41.20;;;26.87;;
10275;SDS011;5183;51.190;6.820;2022-11-20T16:28:47;45.10;;;26.30;;
10275;SDS011;5183;51.190;6.820;2022-11-20T16:31:14;42.77;;;26.33;;
10275;SDS011;5183;51.190;6.820;2022-11-20T16:33:43;43.57;;;27.40;;
10275;SDS011;5183;51.190;6.820;2022-11-20T16:36:15;41.27;;;25.43;;
10275;SDS011;5183;51.190;6.820;2022-11-20T16:38:41;41.60;;;25.93;;
10275;SDS011;5183;51.190;6.820;2022-11-20T16:41:10;40.33;;;26.60;;
10275;SDS011;5183;51.190;6.820;2022-11-20T16:43:42;42.57;;;26.87;;
10275;SDS011;5183;51.190;6.820;2022-11-20T16:46:11;44.47;;;27.83;;
10275;SDS011;5183;51.190;6.820;2022-11-20T16:48:38;43.87;;;27.17;;
10275;SDS011;5183;51.190;6.820;2022-11-20T16:51:06;46.93;;;27.37;;
10275;SDS011;5183;51.190;6.820;2022-11-20T16:53:35;40.97;;;26.17;;
10275;SDS011;5183;51.190;6.820;2022-11-20T16:56:13;45.10;;;27.50;;
10275;SDS011;5183;51.190;6.820;2022-11-20T16:58:41;44.20;;;28.17;;
10275;SDS011;5183;51.190;6.820;2022-11-20T17:01:08;44.67;;;28.50;;
10275;SDS011;5183;51.190;6.820;2022-11-20T17:03:36;44.70;;;26.70;;
10275;SDS011;5183;51.190;6.820;2022-11-20T17:06:10;43.40;;;26.43;;
10275;SDS011;5183;51.190;6.820;2022-11-20T17:08:38;43.30;;;26.30;;
10275;SDS011;5183;51.190;6.820;2022-11-20T17:11:05;45.43;;;27.47;;
10275;SDS011;5183;51.190;6.820;2022-11-20T17:13:34;39.70;;;24.93;;
10275;SDS011;5183;51.190;6.820;2022-11-20T17:16:01;42.40;;;26.07;;
10275;SDS011;5183;51.190;6.820;2022-11-20T17:18:29;43.27;;;25.17;;
10275;SDS011;5183;51.190;6.820;2022-11-20T17:20:56;38.27;;;23.97;;
10275;SDS011;5183;51.190;6.820;2022-11-20T17:23:26;37.40;;;23.33;;
10275;SDS011;5183;51.190;6.820;2022-11-20T17:25:59;36.93;;;22.67;;
10275;SDS011;5183;51.190;6.820;2022-11-20T17:28:27;39.17;;;23.27;;
10275;SDS011;5183;51.190;6.820;2022-11-20T17:30:59;34.00;;;21.90;;
10275;SDS011;5183;51.190;6.820;2022-11-20T17:33:26;36.30;;;21.80;;
10275;SDS011;5183;51.190;6.820;2022-11-20T17:35:54;31.60;;;21.90;;
10275;SDS011;5183;51.190;6.820;2022-11-20T17:38:21;35.47;;;21.37;;
10275;SDS011;5183;51.190;6.820;2022-11-20T17:40:48;34.03;;;20.00;;
10275;SDS011;5183;51.190;6.820;2022-11-20T17:43:15;30.27;;;20.00;;
10275;SDS011;5183;51.190;6.820;2022-11-20T17:45:42;29.60;;;19.50;;
10275;SDS011;5183;51.190;6.820;2022-11-20T17:48:10;33.93;;;20.90;;
10275;SDS011;5183;51.190;6.820;2022-11-20T17:50:37;31.33;;;19.83;;
10275;SDS011;5183;51.190;6.820;2022-11-20T17:53:04;30.50;;;19.47;;
10275;SDS011;5183;51.190;6.820;2022-11-20T17:55:31;33.40;;;21.10;;
10275;SDS011;5183;51.190;6.820;2022-11-20T17:58:12;32.17;;;20.60;;
10275;SDS011;5183;51.190;6.820;2022-11-20T18:00:39;29.83;;;19.50;;
10275;SDS011;5183;51.190;6.820;2022-11-20T18:03:05;27.60;;;19.27;;
10275;SDS011;5183;51.190;6.820;2022-11-20T18:05:34;28.37;;;18.27;;
10275;SDS011;5183;51.190;6.820;2022-11-20T18:08:01;31.13;;;19.73;;
10275;SDS011;5183;51.190;6.820;2022-11-20T18:10:28;28.10;;;18.83;;
10275;SDS011;5183;51.190;6.820;2022-11-20T18:12:54;27.00;;;18.73;;
10275;SDS011;5183;51.190;6.820;2022-11-20T18:15:21;26.03;;;18.33;;
10275;SDS011;5183;51.190;6.820;2022-11-20T18:17:48;27.57;;;19.03;;
10275;SDS011;5183;51.190;6.820;2022-11-20T18:20:15;26.53;;;18.40;;
10275;SDS011;5183;51.190;6.820;2022-11-20T18:22:44;24.67;;;18.07;;
10275;SDS011;5183;51.190;6.820;2022-11-20T18:25:11;23.53;;;17.90;;
10275;SDS011;5183;51.190;6.820;2022-11-20T18:27:37;23.40;;;18.03;;
10275;SDS011;5183;51.190;6.820;2022-11-20T18:30:05;20.57;;;16.87;;
10275;SDS011;5183;51.190;6.820;2022-11-20T18:32:33;22.47;;;17.73;;
10275;SDS011;5183;51.190;6.820;2022-11-20T18:35:00;22.80;;;16.73;;
10275;SDS011;5183;51.190;6.820;2022-11-20T18:37:27;19.33;;;16.00;;
10275;SDS011;5183;51.190;6.820;2022-11-20T18:39:55;20.67;;;15.97;;
10275;SDS011;5183;51.190;6.820;2022-11-20T18:42:22;18.63;;;15.33;;
10275;SDS011;5183;51.190;6.820;2022-11-20T18:45:06;19.27;;;15.43;;
10275;SDS011;5183;51.190;6.820;2022-11-20T18:47:34;16.10;;;13.67;;
10275;SDS011;5183;51.190;6.820;2022-11-20T18:50:02;17.07;;;13.70;;
10275;SDS011;5183;51.190;6.820;2022-11-20T18:52:31;18.30;;;14.37;;
10275;SDS011;5183;51.190;6.820;2022-11-20T18:55:01;16.93;;;14.40;;
10275;SDS011;5183;51.190;6.820;2022-11-20T18:57:29;16.93;;;14.47;;
10275;SDS011;5183;51.190;6.820;2022-11-20T18:59:56;16.50;;;14.30;;
10275;SDS011;5183;51.190;6.820;2022-11-20T19:02:24;16.97;;;13.37;;
10275;SDS011;5183;51.190;6.820;2022-11-20T19:04:52;18.93;;;13.87;;
10275;SDS011;5183;51.190;6.820;2022-11-20T19:07:20;17.53;;;14.13;;
10275;SDS011;5183;51.190;6.820;2022-11-20T19:09:48;20.03;;;15.17;;
10275;SDS011;5183;51.190;6.820;2022-11-20T19:12:18;18.77;;;15.17;;
10275;SDS011;5183;51.190;6.820;2022-11-20T19:14:45;20.23;;;15.87;;
10275;SDS011;5183;51.190;6.820;2022-11-20T19:17:12;24.83;;;16.03;;
10275;SDS011;5183;51.190;6.820;2022-11-20T19:19:41;24.17;;;15.77;;
10275;SDS011;5183;51.190;6.820;2022-11-20T19:22:07;22.47;;;17.23;;
10275;SDS011;5183;51.190;6.820;2022-11-20T19:24:34;19.53;;;15.27;;
10275;SDS011;5183;51.190;6.820;2022-11-20T19:27:01;22.53;;;15.37;;
10275;SDS011;5183;51.190;6.820;2022-11-20T19:29:29;24.40;;;12.53;;
10275;SDS011;5183;51.190;6.820;2022-11-20T19:31:56;19.80;;;12.10;;
10275;SDS011;5183;51.190;6.820;2022-11-20T19:34:23;19.17;;;12.00;;
10275;SDS011;5183;51.190;6.820;2022-11-20T19:36:51;16.27;;;10.13;;
10275;SDS011;5183;51.190;6.820;2022-11-20T19:39:18;19.77;;;10.30;;
10275;SDS011;5183;51.190;6.820;2022-11-20T19:41:44;17.77;;;9.93;;
10275;SDS011;5183;51.190;6.820;2022-11-20T19:44:12;21.47;;;9.27;;
10275;SDS011;5183;51.190;6.820;2022-11-20T19:46:42;20.53;;;9.50;;
10275;SDS011;5183;51.190;6.820;2022-11-20T19:49:10;24.13;;;9.13;;
10275;SDS011;5183;51.190;6.820;2022-11-20T19:51:42;22.17;;;8.67;;
10275;SDS011;5183;51.190;6.820;2022-11-20T19:54:10;22.50;;;9.27;;
10275;SDS011;5183;51.190;6.820;2022-11-20T19:56:37;19.07;;;8.60;;
10275;SDS011;5183;51.190;6.820;2022-11-20T19:59:04;23.67;;;8.30;;
10275;SDS011;5183;51.190;6.820;2022-11-20T20:01:31;23.52;;;7.95;;
10275;SDS011;5183;51.190;6.820;2022-11-20T20:04:00;22.40;;;8.40;;
10275;SDS011;5183;51.190;6.820;2022-11-20T20:06:29;19.40;;;7.60;;
10275;SDS011;5183;51.190;6.820;2022-11-20T20:08:57;17.60;;;7.60;;
10275;SDS011;5183;51.190;6.820;2022-11-20T20:11:26;22.67;;;8.53;;
10275;SDS011;5183;51.190;6.820;2022-11-20T20:13:55;20.20;;;8.33;;
10275;SDS011;5183;51.190;6.820;2022-11-20T20:16:23;20.87;;;8.13;;
10275;SDS011;5183;51.190;6.820;2022-11-20T20:18:53;20.43;;;8.77;;
10275;SDS011;5183;51.190;6.820;2022-11-20T20:21:22;21.57;;;7.83;;
10275;SDS011;5183;51.190;6.820;2022-11-20T20:23:49;23.17;;;8.17;;
10275;SDS011;5183;51.190;6.820;2022-11-20T20:26:17;24.00;;;8.73;;
10275;SDS011;5183;51.190;6.820;2022-11-20T20:28:45;19.33;;;8.20;;
10275;SDS011;5183;51.190;6.820;2022-11-20T20:31:13;23.70;;;8.47;;
10275;SDS011;5183;51.190;6.820;2022-11-20T20:33:42;19.53;;;7.93;;
10275;SDS011;5183;51.190;6.820;2022-11-20T20:36:09;21.73;;;8.57;;
10275;SDS011;5183;51.190;6.820;2022-11-20T20:38:38;19.93;;;8.57;;
10275;SDS011;5183;51.190;6.820;2022-11-20T20:41:06;21.90;;;9.13;;
10275;SDS011;5183;51.190;6.820;2022-11-20T20:43:33;19.47;;;8.50;;